createdAt,value
2022-11-25T00:01:51.114Z,99887.81
2022-11-25T00:04:26.782Z,99880.69
2022-11-25T00:07:00.213Z,99887.00
2022-11-25T00:09:36.297Z,99891.28
2022-11-25T00:12:07.005Z,99896.28
2022-11-25T00:14:37.376Z,99897.72
2022-11-25T00:17:10.863Z,99890.50
2022-11-25T00:19:44.514Z,99894.97
2022-11-25T00:22:15.742Z,99901.09
2022-11-25T00:24:45.871Z,99893.13
2022-11-25T00:27:16.637Z,99882.75
2022-11-25T00:29:47.309Z,99888.34
2022-11-25T00:32:20.951Z,99898.47
2022-11-25T00:34:51.756Z,99896.91
2022-11-25T00:37:22.773Z,99896.84
2022-11-25T00:39:50.466Z,99896.56
2022-11-25T00:42:24.327Z,99906.41
2022-11-25T00:44:58.773Z,99900.06
2022-11-25T00:47:29.215Z,99905.38
2022-11-25T00:49:57.969Z,99908.28
2022-11-25T00:52:31.834Z,99910.66
2022-11-25T00:55:08.102Z,99903.22
2022-11-25T00:57:41.924Z,99917.56
2022-11-25T01:00:19.127Z,99909.88
2022-11-25T01:02:49.771Z,99916.31
2022-11-25T01:05:26.726Z,99918.38
2022-11-25T01:07:55.243Z,99909.31
2022-11-25T01:10:28.500Z,99918.13
2022-11-25T01:12:59.040Z,99918.16
2022-11-25T01:15:29.831Z,99919.50
2022-11-25T01:18:00.638Z,99918.63
2022-11-25T01:20:31.160Z,99920.00
2022-11-25T01:23:02.210Z,99922.41
2022-11-25T01:25:36.442Z,99922.97
2022-11-25T01:28:10.789Z,99921.34
2022-11-25T01:30:44.858Z,99926.38
2022-11-25T01:33:15.018Z,99925.66
2022-11-25T01:35:45.144Z,99922.19
2022-11-25T01:38:16.246Z,99920.81
2022-11-25T01:40:47.071Z,99910.66
2022-11-25T01:43:20.634Z,99903.28
2022-11-25T01:45:48.203Z,99914.41
2022-11-25T01:48:33.486Z,99920.28
2022-11-25T01:51:05.041Z,99913.28
2022-11-25T01:53:35.257Z,99916.50
2022-11-25T01:56:06.827Z,99924.75
2022-11-25T01:58:40.761Z,99919.19
2022-11-25T02:01:11.449Z,99918.09
2022-11-25T02:03:44.873Z,99915.91
2022-11-25T02:06:21.819Z,99926.25
2022-11-25T02:08:55.763Z,99925.75
2022-11-25T02:11:29.080Z,99929.41
2022-11-25T02:14:06.318Z,99936.13
2022-11-25T02:16:40.209Z,99930.28
2022-11-25T02:19:20.786Z,99931.56
2022-11-25T02:22:00.029Z,99935.47
2022-11-25T02:24:40.977Z,99937.66
2022-11-25T02:27:09.174Z,99938.66
2022-11-25T02:29:43.634Z,99939.28
2022-11-25T02:32:16.498Z,99937.13
2022-11-25T02:34:50.406Z,99936.88
2022-11-25T02:37:23.348Z,99946.13
2022-11-25T02:39:58.385Z,99941.91
2022-11-25T02:42:31.876Z,99944.56
2022-11-25T02:45:02.844Z,99936.63
2022-11-25T02:47:33.153Z,99931.22
2022-11-25T02:50:06.809Z,99938.38
2022-11-25T02:52:46.398Z,99942.88
2022-11-25T02:55:19.645Z,99948.31
2022-11-25T02:57:55.807Z,99949.59
2022-11-25T03:00:30.208Z,99952.59
2022-11-25T03:03:01.327Z,99949.88
2022-11-25T03:05:38.034Z,99962.03
2022-11-25T03:08:12.587Z,99964.72
2022-11-25T03:10:40.292Z,99966.56
2022-11-25T03:13:13.737Z,99963.66
2022-11-25T03:15:43.897Z,99963.13
2022-11-25T03:18:13.587Z,99971.59
2022-11-25T03:20:43.547Z,99966.78
2022-11-25T03:23:18.562Z,99964.72
2022-11-25T03:25:46.084Z,99966.28
2022-11-25T03:28:16.618Z,99976.66
2022-11-25T03:30:51.617Z,99977.13
2022-11-25T03:33:23.774Z,99979.06
2022-11-25T03:35:54.811Z,99977.03
2022-11-25T03:38:28.411Z,99985.19
2022-11-25T03:40:59.599Z,99984.34
2022-11-25T03:43:31.290Z,99987.56
2022-11-25T03:46:05.503Z,99991.84
2022-11-25T03:48:37.123Z,99987.47
2022-11-25T03:51:07.357Z,99988.03
2022-11-25T03:53:41.302Z,99987.22
2022-11-25T03:56:18.389Z,99992.88
2022-11-25T03:58:48.738Z,99999.91
2022-11-25T04:01:16.489Z,99997.59
2022-11-25T04:03:47.471Z,100017.31
2022-11-25T04:06:15.970Z,100010.72
2022-11-25T04:08:49.170Z,100025.53
2022-11-25T04:11:20.162Z,100029.94
2022-11-25T04:13:47.434Z,100029.81
2022-11-25T04:16:28.533Z,100018.94
2022-11-25T04:19:02.627Z,100032.06
2022-11-25T04:21:30.797Z,100037.03
2022-11-25T04:24:01.218Z,100037.22
2022-11-25T04:26:34.165Z,100040.22
2022-11-25T04:29:01.857Z,100051.56
2022-11-25T04:31:38.481Z,100053.91
2022-11-25T04:34:05.783Z,100055.41
2022-11-25T04:36:41.416Z,100055.03
2022-11-25T04:39:18.212Z,100056.00
2022-11-25T04:41:45.558Z,100061.81
2022-11-25T04:44:19.586Z,100065.00
2022-11-25T04:46:49.824Z,100065.34
2022-11-25T04:49:20.981Z,100065.09
2022-11-25T04:51:52.191Z,100064.44
2022-11-25T04:54:22.724Z,100070.44
2022-11-25T04:56:56.598Z,100075.94
2022-11-25T04:59:26.924Z,100074.34
2022-11-25T05:01:57.070Z,100081.16
2022-11-25T05:04:27.996Z,100074.91
2022-11-25T05:07:02.833Z,100080.94
2022-11-25T05:09:33.875Z,100089.13
2022-11-25T05:12:07.282Z,100088.03
2022-11-25T05:14:37.807Z,100091.78
2022-11-25T05:17:14.068Z,100099.72
2022-11-25T05:19:43.069Z,100105.97
2022-11-25T05:22:12.506Z,100112.91
2022-11-25T05:24:40.352Z,100114.00
2022-11-25T05:27:10.982Z,100120.53
2022-11-25T05:29:41.542Z,100126.03
2022-11-25T05:32:12.150Z,100127.44
2022-11-25T05:34:40.358Z,100129.78
2022-11-25T05:37:08.426Z,100139.63
2022-11-25T05:39:38.857Z,100142.25
2022-11-25T05:42:11.609Z,100160.03
2022-11-25T05:44:39.429Z,100154.44
2022-11-25T05:47:10.934Z,100165.75
2022-11-25T05:49:41.254Z,100161.03
2022-11-25T05:52:11.655Z,100172.16
2022-11-25T05:54:42.666Z,100179.50
2022-11-25T05:57:17.934Z,100180.16
2022-11-25T05:59:45.892Z,100188.06
2022-11-25T06:02:18.834Z,100185.94
2022-11-25T06:04:54.619Z,100187.66
2022-11-25T06:07:22.412Z,100194.78
2022-11-25T06:09:50.737Z,100188.63
2022-11-25T06:12:23.872Z,100192.84
2022-11-25T06:14:56.357Z,100205.72
2022-11-25T06:17:31.887Z,100214.25
2022-11-25T06:20:02.677Z,100208.88
2022-11-25T06:22:29.912Z,100207.13
2022-11-25T06:25:03.668Z,100218.56
2022-11-25T06:28:04.637Z,100228.00
2022-11-25T06:30:25.753Z,100218.38
2022-11-25T06:32:54.839Z,100218.81
2022-11-25T06:35:22.111Z,100225.50
2022-11-25T06:37:49.437Z,100232.34
2022-11-25T06:40:17.197Z,100236.25
2022-11-25T06:42:47.448Z,100227.00
2022-11-25T06:45:17.942Z,100232.09
2022-11-25T06:47:50.587Z,100237.19
2022-11-25T06:50:22.945Z,100239.84
2022-11-25T06:52:53.884Z,100236.44
2022-11-25T06:55:21.258Z,100242.25
2022-11-25T06:57:48.667Z,100241.50
2022-11-25T07:00:16.312Z,100246.72
2022-11-25T07:02:48.232Z,100243.63
2022-11-25T07:05:16.666Z,100259.75
2022-11-25T07:07:50.409Z,100253.47
2022-11-25T07:10:18.355Z,100264.72
2022-11-25T07:12:49.582Z,100256.50
2022-11-25T07:15:22.782Z,100259.56
2022-11-25T07:17:59.388Z,100254.16
2022-11-25T07:20:27.128Z,100263.25
2022-11-25T07:22:57.471Z,100260.31
2022-11-25T07:25:30.458Z,100262.97
2022-11-25T07:27:58.976Z,100257.47
2022-11-25T07:33:21.315Z,100267.19
2022-11-25T07:35:48.786Z,100276.91
2022-11-25T07:38:16.388Z,100279.41
2022-11-25T07:40:53.594Z,100278.09
2022-11-25T07:43:21.436Z,100287.53
2022-11-25T07:45:52.146Z,100288.28
2022-11-25T07:48:25.806Z,100287.72
2022-11-25T07:50:56.880Z,100282.88
2022-11-25T07:53:30.405Z,100297.31
2022-11-25T07:56:04.136Z,100296.53
2022-11-25T07:58:44.400Z,100298.09
2022-11-25T08:01:17.999Z,100290.75
2022-11-25T08:03:52.465Z,100295.25
2022-11-25T08:06:24.900Z,100304.97
2022-11-25T08:08:57.512Z,100297.53
2022-11-25T08:11:30.225Z,100309.53
2022-11-25T08:14:03.963Z,100307.19
2022-11-25T08:16:32.334Z,100311.63
2022-11-25T08:19:05.008Z,100314.94
2022-11-25T08:21:38.978Z,100316.94
2022-11-25T08:24:13.409Z,100325.13
2022-11-25T08:26:47.681Z,100317.91
2022-11-25T08:29:20.708Z,100324.28
2022-11-25T08:31:56.479Z,100319.97
2022-11-25T08:34:26.922Z,100332.16
2022-11-25T08:36:58.104Z,100340.56
2022-11-25T08:39:51.003Z,100335.25
2022-11-25T08:42:19.432Z,100331.81
2022-11-25T08:44:54.150Z,100331.06
2022-11-25T08:47:25.271Z,100331.88
2022-11-25T08:49:58.316Z,100334.81
2022-11-25T08:52:28.981Z,100337.50
2022-11-25T08:55:02.993Z,100333.78
2022-11-25T08:57:34.173Z,100335.38
2022-11-25T09:00:10.591Z,100335.91
2022-11-25T09:02:40.855Z,100333.22
2022-11-25T09:05:16.211Z,100328.88
2022-11-25T09:07:46.376Z,100324.03
2022-11-25T09:10:18.558Z,100323.44
2022-11-25T09:12:57.791Z,100319.06
2022-11-25T09:15:29.307Z,100323.50
2022-11-25T09:18:02.417Z,100324.03
2022-11-25T09:20:31.234Z,100328.72
2022-11-25T09:23:02.566Z,100329.72
2022-11-25T09:25:30.903Z,100328.91
2022-11-25T09:28:01.227Z,100328.06
2022-11-25T09:30:31.846Z,100331.53
2022-11-25T09:33:02.550Z,100328.81
2022-11-25T09:35:32.883Z,100324.69
2022-11-25T09:38:00.416Z,100333.88
2022-11-25T09:40:43.118Z,100325.41
2022-11-25T09:43:29.783Z,100330.19
2022-11-25T09:46:44.309Z,100327.50
2022-11-25T09:49:39.188Z,100335.91
2022-11-25T09:52:24.948Z,100324.28
2022-11-25T09:55:07.252Z,100321.59
2022-11-25T09:57:57.886Z,100323.16
2022-11-25T10:00:49.035Z,100319.00
2022-11-25T10:03:46.694Z,100314.53
2022-11-25T10:06:26.024Z,100319.91
2022-11-25T10:08:59.464Z,100319.53
2022-11-25T10:11:42.283Z,100322.72
2022-11-25T10:14:29.796Z,100322.63
2022-11-25T10:17:00.609Z,100316.25
2022-11-25T10:19:40.560Z,100312.00
2022-11-25T10:22:21.603Z,100317.25
2022-11-25T10:25:01.934Z,100315.84
2022-11-25T10:27:48.126Z,100315.31
2022-11-25T10:30:23.842Z,100318.97
2022-11-25T10:32:56.521Z,100322.31
2022-11-25T10:35:45.879Z,100320.09
2022-11-25T10:38:26.599Z,100317.91
2022-11-25T10:40:57.294Z,100313.59
2022-11-25T10:43:31.729Z,100321.38
2022-11-25T10:46:16.446Z,100320.94
2022-11-25T10:49:14.564Z,100317.22
2022-11-25T10:51:50.968Z,100313.97
2022-11-25T10:54:29.184Z,100325.44
2022-11-25T10:57:16.442Z,100311.94
2022-11-25T10:59:58.118Z,100306.00
2022-11-25T11:02:25.739Z,100317.09
2022-11-25T11:05:01.755Z,100309.75
2022-11-25T11:07:34.241Z,100316.53
2022-11-25T11:10:23.155Z,100302.97
2022-11-25T11:13:00.778Z,100309.81
2022-11-25T11:15:46.117Z,100311.50
2022-11-25T11:18:36.534Z,100309.09
2022-11-25T11:21:22.086Z,100318.09
2022-11-25T11:23:56.773Z,100304.38
2022-11-25T11:26:36.906Z,100307.13
2022-11-25T11:29:17.400Z,100306.66
2022-11-25T11:31:51.592Z,100316.41
2022-11-25T11:34:40.688Z,100309.44
2022-11-25T11:37:34.043Z,100307.69
2022-11-25T11:40:10.413Z,100305.41
2022-11-25T11:42:37.643Z,100304.28
2022-11-25T11:45:24.483Z,100300.81
2022-11-25T11:48:10.565Z,100307.53
2022-11-25T11:50:51.420Z,100297.50
2022-11-25T11:53:28.092Z,100302.00
2022-11-25T11:56:35.254Z,100304.28
2022-11-25T11:59:22.139Z,100293.31
2022-11-25T12:02:17.396Z,100300.22
2022-11-25T12:05:00.235Z,100296.13
2022-11-25T12:07:41.741Z,100297.34
2022-11-25T12:10:15.696Z,100295.78
2022-11-25T12:13:06.998Z,100295.84
2022-11-25T12:15:37.206Z,100295.84
2022-11-25T12:18:14.614Z,100305.63
2022-11-25T12:20:57.394Z,100297.94
2022-11-25T12:23:51.889Z,100295.81
2022-11-25T12:26:36.860Z,100300.47
2022-11-25T12:29:20.019Z,100300.59
2022-11-25T12:31:57.726Z,100301.75
2022-11-25T12:34:38.874Z,100304.31
2022-11-25T12:37:16.073Z,100302.34
2022-11-25T12:40:03.011Z,100302.16
2022-11-25T12:42:32.426Z,100312.56
2022-11-25T12:45:17.149Z,100305.59
2022-11-25T12:47:48.184Z,100315.00
2022-11-25T12:50:47.964Z,100311.00
2022-11-25T12:53:34.284Z,100309.69
2022-11-25T12:56:14.149Z,100314.22
2022-11-25T12:58:53.814Z,100310.53
2022-11-25T13:01:35.267Z,100317.50
2022-11-25T13:04:23.098Z,100312.50
2022-11-25T13:07:15.669Z,100307.38
2022-11-25T13:09:52.087Z,100309.53
2022-11-25T13:12:26.602Z,100307.69
2022-11-25T13:15:13.068Z,100309.00
2022-11-25T13:17:52.740Z,100307.38
2022-11-25T13:20:28.969Z,100317.34
2022-11-25T13:23:06.936Z,100315.22
2022-11-25T13:25:42.963Z,100323.25
2022-11-25T13:28:37.357Z,100317.34
2022-11-25T13:31:34.698Z,100320.91
2022-11-25T13:34:28.166Z,100323.31
2022-11-25T13:36:57.867Z,100325.72
2022-11-25T13:39:34.765Z,100322.00
2022-11-25T13:42:18.683Z,100322.81
2022-11-25T13:44:54.809Z,100324.66
2022-11-25T13:47:36.931Z,100331.09
2022-11-25T13:50:11.913Z,100326.53
2022-11-25T13:52:45.875Z,100338.56
2022-11-25T13:55:18.893Z,100338.28
2022-11-25T13:58:20.266Z,100340.19
2022-11-25T14:01:03.285Z,100341.00
2022-11-25T14:03:33.881Z,100345.00
2022-11-25T14:06:04.352Z,100347.94
2022-11-25T14:09:02.317Z,100348.75
2022-11-25T14:11:51.285Z,100347.13
2022-11-25T14:14:57.157Z,100350.88
2022-11-25T14:17:39.070Z,100359.97
2022-11-25T14:20:31.661Z,100363.69
2022-11-25T14:23:36.674Z,100362.09
2022-11-25T14:26:48.337Z,100366.91
2022-11-25T14:29:28.057Z,100363.13
2022-11-25T14:32:12.686Z,100367.09
2022-11-25T14:34:45.675Z,100363.34
2022-11-25T14:37:29.549Z,100362.81
2022-11-25T14:40:05.897Z,100362.84
2022-11-25T14:42:38.755Z,100376.16
2022-11-25T14:45:30.527Z,100376.66
2022-11-25T14:47:58.091Z,100371.84
2022-11-25T14:50:35.029Z,100372.34
2022-11-25T14:53:10.085Z,100381.06
2022-11-25T14:55:39.113Z,100392.81
2022-11-25T14:58:12.533Z,100387.50
2022-11-25T15:01:00.701Z,100392.75
2022-11-25T15:03:37.950Z,100397.28
2022-11-25T15:06:06.407Z,100397.34
2022-11-25T15:08:44.341Z,100393.47
2022-11-25T15:11:19.528Z,100395.63
2022-11-25T15:14:02.144Z,100408.31
2022-11-25T15:16:39.561Z,100410.28
2022-11-25T15:19:18.754Z,100416.19
2022-11-25T15:22:21.460Z,100418.13
2022-11-25T15:24:50.184Z,100414.63
2022-11-25T15:27:31.381Z,100418.72
2022-11-25T15:30:02.504Z,100426.47
2022-11-25T15:32:34.703Z,100431.81
2022-11-25T15:35:15.940Z,100437.06
2022-11-25T15:37:47.526Z,100433.44
2022-11-25T15:40:31.264Z,100438.97
2022-11-25T15:43:04.683Z,100444.81
2022-11-25T15:45:49.848Z,100440.84
2022-11-25T15:48:47.757Z,100443.09
2022-11-25T15:51:32.470Z,100440.69
2022-11-25T15:54:18.537Z,100449.41
2022-11-25T15:57:03.286Z,100458.28
2022-11-25T15:59:42.758Z,100453.44
2022-11-25T16:02:33.221Z,100453.53
2022-11-25T16:05:37.638Z,100459.59
2022-11-25T16:08:29.761Z,100464.53
2022-11-25T16:11:18.181Z,100469.59
2022-11-25T16:13:53.634Z,100473.69
2022-11-25T16:16:31.248Z,100472.13
2022-11-25T16:19:20.808Z,100474.13
2022-11-25T16:22:12.471Z,100483.53
2022-11-25T16:24:50.847Z,100484.66
2022-11-25T16:27:29.365Z,100488.59
2022-11-25T16:30:35.338Z,100491.59
2022-11-25T16:33:09.946Z,100488.31
2022-11-25T16:35:37.428Z,100498.25
2022-11-25T16:38:12.370Z,100494.84
2022-11-25T16:40:42.855Z,100503.50
2022-11-25T16:43:24.423Z,100501.34
2022-11-25T16:45:53.358Z,100503.59
2022-11-25T16:48:24.740Z,100508.03
2022-11-25T16:50:56.286Z,100503.00
2022-11-25T16:53:27.349Z,100516.66
2022-11-25T16:56:02.915Z,100509.53
2022-11-25T16:58:30.234Z,100514.88
2022-11-25T17:01:13.040Z,100528.19
2022-11-25T17:03:44.298Z,100527.13
2022-11-25T17:06:21.351Z,100531.16
2022-11-25T17:08:56.701Z,100530.19
2022-11-25T17:11:30.765Z,100529.19
2022-11-25T17:14:07.804Z,100528.94
2022-11-25T17:16:42.212Z,100537.81
2022-11-25T17:19:17.826Z,100536.75
2022-11-25T17:21:46.680Z,100535.69
2022-11-25T17:24:23.821Z,100549.22
2022-11-25T17:26:57.158Z,100543.59
2022-11-25T17:29:41.591Z,100541.81
2022-11-25T17:32:13.861Z,100552.94
2022-11-25T17:34:41.405Z,100551.66
2022-11-25T17:37:21.477Z,100548.22
2022-11-25T17:39:58.681Z,100548.81
2022-11-25T17:42:33.987Z,100554.69
2022-11-25T17:45:15.789Z,100555.75
2022-11-25T17:47:47.046Z,100557.19
2022-11-25T17:50:24.131Z,100568.88
2022-11-25T17:52:58.462Z,100564.59
2022-11-25T17:55:28.299Z,100566.38
2022-11-25T17:58:02.450Z,100573.81
2022-11-25T18:00:33.783Z,100563.75
2022-11-25T18:03:09.066Z,100570.69
2022-11-25T18:05:40.461Z,100568.94
2022-11-25T18:08:11.486Z,100576.22
2022-11-25T18:10:47.355Z,100582.81
2022-11-25T18:13:15.856Z,100576.50
2022-11-25T18:15:47.716Z,100578.16
2022-11-25T18:18:27.775Z,100576.16
2022-11-25T18:20:59.056Z,100581.13
2022-11-25T18:23:30.461Z,100579.88
2022-11-25T18:26:00.293Z,100582.25
2022-11-25T18:28:34.148Z,100585.19
2022-11-25T18:31:04.882Z,100592.22
2022-11-25T18:33:38.437Z,100603.72
2022-11-25T18:36:12.798Z,100586.22
2022-11-25T18:38:40.200Z,100589.78
2022-11-25T18:41:20.591Z,100597.50
2022-11-25T18:43:51.053Z,100597.50
2022-11-25T18:46:29.213Z,100605.69
2022-11-25T18:48:57.236Z,100604.88
2022-11-25T18:51:31.723Z,100611.38
2022-11-25T18:54:13.809Z,100602.69
2022-11-25T18:56:46.428Z,100595.91
2022-11-25T18:59:23.195Z,100600.84
2022-11-25T19:01:57.463Z,100608.69
2022-11-25T19:04:28.829Z,100611.78
2022-11-25T19:06:57.036Z,100610.97
2022-11-25T19:09:33.717Z,100604.19
2022-11-25T19:12:09.567Z,100612.25
2022-11-25T19:14:41.729Z,100609.91
2022-11-25T19:17:20.619Z,100614.63
2022-11-25T19:19:52.347Z,100616.72
2022-11-25T19:22:22.950Z,100621.25
2022-11-25T19:24:56.751Z,100617.97
2022-11-25T19:27:27.832Z,100629.16
2022-11-25T19:29:58.668Z,100630.06
2022-11-25T19:32:39.832Z,100625.31
2022-11-25T19:35:38.681Z,100633.16
2022-11-25T19:38:28.969Z,100637.44
2022-11-25T19:41:08.083Z,100629.25
2022-11-25T19:43:54.470Z,100631.81
2022-11-25T19:47:13.031Z,100640.69
2022-11-25T19:49:49.890Z,100649.94
2022-11-25T19:52:33.140Z,100650.88
2022-11-25T19:55:28.132Z,100654.38
2022-11-25T19:58:21.495Z,100660.81
2022-11-25T20:01:05.914Z,100665.88
2022-11-25T20:03:37.043Z,100660.75
2022-11-25T20:06:44.833Z,100674.84
2022-11-25T20:09:29.881Z,100674.44
2022-11-25T20:12:30.096Z,100678.72
2022-11-25T20:15:16.849Z,100687.94
2022-11-25T20:21:20.993Z,100703.66
2022-11-25T20:24:06.706Z,100707.88
2022-11-25T20:26:59.915Z,100709.28
2022-11-25T20:29:41.612Z,100699.78
2022-11-25T20:32:31.901Z,100714.44
2022-11-25T20:35:09.193Z,100721.13
2022-11-25T20:37:58.638Z,100719.22
2022-11-25T20:40:46.225Z,100720.75
2022-11-25T20:43:37.573Z,100712.22
2022-11-25T20:52:46.239Z,100713.31
2022-11-25T20:55:32.655Z,100725.59
2022-11-25T20:58:26.986Z,100730.09
2022-11-25T21:01:09.704Z,100731.38
2022-11-25T21:06:41.490Z,100729.28
2022-11-25T21:09:24.946Z,100725.19
2022-11-25T21:12:00.104Z,100730.38
2022-11-25T21:14:32.485Z,100728.31
2022-11-25T21:17:11.002Z,100733.31
2022-11-25T21:19:45.093Z,100729.91
2022-11-25T21:25:12.676Z,100741.81
2022-11-25T21:27:52.544Z,100747.34
2022-11-25T21:30:43.943Z,100744.00
2022-11-25T21:33:24.907Z,100750.16
2022-11-25T21:36:05.580Z,100754.00
2022-11-25T21:38:49.909Z,100756.09
2022-11-25T21:41:36.902Z,100766.69
2022-11-25T21:44:37.395Z,100772.47
2022-11-25T21:47:31.670Z,100780.91
2022-11-25T21:50:17.744Z,100783.81
2022-11-25T21:52:59.453Z,100785.59
2022-11-25T21:55:45.748Z,100793.53
2022-11-25T21:58:45.339Z,100797.41
2022-11-25T22:01:20.562Z,100793.44
2022-11-25T22:03:55.601Z,100795.25
2022-11-25T22:06:43.268Z,100792.00
2022-11-25T22:09:32.944Z,100805.34
2022-11-25T22:12:20.903Z,100791.19
2022-11-25T22:15:27.223Z,100799.75
2022-11-25T22:18:36.829Z,100811.19
2022-11-25T22:21:17.436Z,100802.84
2022-11-25T22:24:13.337Z,100812.66
2022-11-25T22:26:58.322Z,100813.63
2022-11-25T22:29:38.895Z,100815.59
2022-11-25T22:32:28.096Z,100814.84
2022-11-25T22:35:18.154Z,100822.75
2022-11-25T22:38:11.057Z,100825.19
2022-11-25T22:43:54.926Z,100822.41
2022-11-25T22:46:39.831Z,100829.00
2022-11-25T22:49:40.445Z,100823.84
2022-11-25T22:52:38.008Z,100815.88
2022-11-25T22:55:26.002Z,100825.44
2022-11-25T22:58:22.684Z,100822.75
2022-11-25T23:01:00.854Z,100822.56
2022-11-25T23:03:45.539Z,100825.22
2022-11-25T23:06:40.957Z,100820.50
2022-11-25T23:09:29.228Z,100820.41
2022-11-25T23:12:15.409Z,100829.59
2022-11-25T23:17:48.311Z,100821.63
2022-11-25T23:20:44.849Z,100813.72
2022-11-25T23:29:14.161Z,100796.09
2022-11-25T23:31:56.563Z,100788.50
2022-11-25T23:34:42.039Z,100794.09
2022-11-25T23:37:33.251Z,100802.84
2022-11-25T23:40:20.886Z,100816.19
2022-11-25T23:43:10.215Z,100826.59
2022-11-25T23:45:51.721Z,100819.44
2022-11-25T23:48:36.340Z,100827.72
2022-11-25T23:51:20.697Z,100829.63
2022-11-25T23:54:04.248Z,100833.66
2022-11-25T23:56:50.625Z,100829.59
2022-11-25T23:59:30.971Z,100825.97
